Time;durP1;ratioP1;P1;durP2;ratioP2;P2;SDS_P1;SDS_P2;PMS_P1;PMS_P2;Temp;Humidity;BMP_temperature;BMP_pressure;BME280_temperature;BME280_humidity;BME280_pressure;Samples;Min_cycle;Max_cycle;Signal;HPM_P1;HPM_P2
2022/04/06 00:00:53;;;;;;;4.88;2.65;;;8.10;99.90;;;;;;5012330;28;20032;-83
2022/04/06 00:03:18;;;;;;;3.15;2.53;;;8.10;99.90;;;;;;5012321;28;20217;-83
2022/04/06 00:05:44;;;;;;;3.83;2.67;;;8.10;99.90;;;;;;5012364;28;20430;-83
2022/04/06 00:08:10;;;;;;;3.85;2.67;;;8.10;99.90;;;;;;5013495;28;20097;-83
2022/04/06 00:10:36;;;;;;;4.50;3.03;;;8.10;99.90;;;;;;5012164;28;20120;-84
2022/04/06 00:13:02;;;;;;;3.45;2.55;;;8.10;99.90;;;;;;5011645;28;20030;-83
2022/04/06 00:15:28;;;;;;;2.92;2.40;;;8.10;99.90;;;;;;5012052;28;20038;-83
2022/04/06 00:17:54;;;;;;;3.03;2.38;;;8.10;99.90;;;;;;5013386;28;20048;-84
2022/04/06 00:20:20;;;;;;;3.95;2.85;;;8.10;99.90;;;;;;5013618;28;20026;-83
2022/04/06 00:22:46;;;;;;;3.42;2.45;;;8.10;99.90;;;;;;5013269;28;20022;-83
2022/04/06 00:25:12;;;;;;;4.22;2.78;;;8.10;99.90;;;;;;5013331;28;20497;-84
2022/04/06 00:27:38;;;;;;;4.65;3.08;;;8.10;99.90;;;;;;5011972;28;20569;-83
2022/04/06 00:30:05;;;;;;;3.53;2.75;;;8.10;99.90;;;;;;5011928;28;20144;-83
2022/04/06 00:32:30;;;;;;;5.68;2.90;;;8.10;99.90;;;;;;5013135;28;20022;-83
2022/04/06 00:37:40;;;;;;;4.25;3.00;;;8.10;99.90;;;;;;5013491;28;20088;-83
2022/04/06 00:40:09;;;;;;;6.30;3.38;;;8.10;99.90;;;;;;5013145;28;20477;-83
2022/04/06 00:42:35;;;;;;;4.65;2.90;;;8.10;99.90;;;;;;5011818;28;20065;-83
2022/04/06 00:45:01;;;;;;;5.07;3.00;;;8.10;99.90;;;;;;5011772;28;20425;-83
2022/04/06 00:47:27;;;;;;;4.07;2.97;;;8.10;99.90;;;;;;5012636;28;20026;-84
2022/04/06 00:49:53;;;;;;;5.03;2.60;;;8.10;99.90;;;;;;5011831;28;20033;-83
2022/04/06 00:52:20;;;;;;;3.72;3.10;;;8.10;99.90;;;;;;5011944;28;20057;-83
2022/04/06 00:54:47;;;;;;;4.28;2.85;;;8.10;99.90;;;;;;5011855;28;20168;-83
2022/04/06 00:57:13;;;;;;;4.30;2.90;;;8.10;99.90;;;;;;5011861;28;20025;-83
2022/04/06 00:59:41;;;;;;;5.28;2.80;;;8.10;99.90;;;;;;5013056;28;20018;-83
2022/04/06 01:02:07;;;;;;;4.70;2.95;;;8.10;99.90;;;;;;5012941;28;20109;-83
2022/04/06 01:04:33;;;;;;;4.22;3.08;;;8.10;99.90;;;;;;5012897;28;20477;-83
2022/04/06 01:06:59;;;;;;;4.20;3.28;;;8.10;99.90;;;;;;5011603;28;20025;-83
2022/04/06 01:09:27;;;;;;;4.80;2.88;;;8.10;99.90;;;;;;5012855;28;20555;-84
2022/04/06 01:11:53;;;;;;;4.05;3.25;;;8.10;99.90;;;;;;5011544;28;20485;-83
2022/04/06 01:14:19;;;;;;;5.47;2.80;;;8.10;99.90;;;;;;5011495;28;20061;-84
2022/04/06 01:17:01;;;;;;;5.00;3.45;;;8.10;99.90;;;;;;5012845;28;20092;-83
2022/04/06 01:19:35;;;;;;;5.00;3.30;;;8.10;99.90;;;;;;5011480;28;20041;-84
2022/04/06 01:22:14;;;;;;;4.32;3.20;;;8.10;99.90;;;;;;5011489;28;20076;-83
2022/04/06 01:24:41;;;;;;;5.28;3.20;;;8.10;99.90;;;;;;5012279;28;20030;-84
2022/04/06 01:27:08;;;;;;;4.80;3.38;;;8.10;99.90;;;;;;5015145;28;20363;-84
2022/04/06 01:29:34;;;;;;;3.90;2.88;;;8.10;99.90;;;;;;5016493;28;20492;-84
2022/04/06 01:32:15;;;;;;;5.22;3.20;;;8.10;99.90;;;;;;5015067;28;20030;-83
2022/04/06 01:34:45;;;;;;;5.53;3.70;;;8.10;99.90;;;;;;5016391;28;20080;-83
2022/04/06 01:37:12;;;;;;;3.75;3.08;;;8.10;99.90;;;;;;5016269;28;20025;-83
2022/04/06 01:39:39;;;;;;;4.72;3.40;;;8.10;99.90;;;;;;5014954;28;20026;-83
2022/04/06 01:42:10;;;;;;;4.68;3.30;;;8.10;99.90;;;;;;5014962;28;20496;-83
2022/04/06 01:44:36;;;;;;;4.65;3.17;;;8.10;99.90;;;;;;5014770;28;20040;-82
2022/04/06 01:47:03;;;;;;;4.15;3.40;;;8.10;99.90;;;;;;5014962;28;20064;-83
2022/04/06 01:52:14;;;;;;;3.53;3.20;;;8.10;99.90;;;;;;5015999;28;20084;-84
2022/04/06 01:54:43;;;;;;;5.00;3.20;;;8.10;99.90;;;;;;5015967;28;20038;-83
2022/04/06 01:57:09;;;;;;;5.90;3.88;;;8.10;99.90;;;;;;5015837;28;20048;-84
2022/04/06 01:59:35;;;;;;;5.25;3.63;;;8.10;99.90;;;;;;5016031;28;20022;-83
2022/04/06 02:02:02;;;;;;;5.30;3.05;;;8.10;99.90;;;;;;5014464;28;20077;-84
2022/04/06 02:04:28;;;;;;;5.78;3.50;;;8.10;99.90;;;;;;5014251;28;20137;-84
2022/04/06 02:06:54;;;;;;;8.75;4.22;;;8.10;99.90;;;;;;5014299;28;20060;-83
2022/04/06 02:09:20;;;;;;;5.07;4.00;;;8.10;99.90;;;;;;5014385;28;20022;-83
2022/04/06 02:11:47;;;;;;;4.43;3.65;;;8.10;99.90;;;;;;5015954;28;20406;-83
2022/04/06 02:14:13;;;;;;;4.40;3.17;;;8.10;99.90;;;;;;5015691;28;20033;-84
2022/04/06 02:16:40;;;;;;;5.72;3.60;;;8.10;99.90;;;;;;5015582;28;20026;-83
2022/04/06 02:19:05;;;;;;;7.03;3.88;;;8.10;99.90;;;;;;5014245;28;20030;-84
2022/04/06 02:21:32;;;;;;;5.35;3.60;;;8.10;99.90;;;;;;5014228;28;20036;-83
2022/04/06 02:23:57;;;;;;;5.22;3.78;;;8.10;99.90;;;;;;5015397;28;20331;-84
2022/04/06 02:26:23;;;;;;;9.98;3.55;;;8.10;99.90;;;;;;5014113;28;20022;-83
2022/04/06 02:28:48;;;;;;;6.50;3.38;;;8.10;99.90;;;;;;5015578;28;20374;-83
2022/04/06 02:31:14;;;;;;;7.30;4.15;;;8.20;99.90;;;;;;5013967;28;20022;-83
2022/04/06 02:33:40;;;;;;;4.28;3.15;;;8.10;99.90;;;;;;5014152;28;20018;-84
2022/04/06 02:36:06;;;;;;;5.45;3.40;;;8.10;99.90;;;;;;5014908;28;20028;-83
2022/04/06 02:38:32;;;;;;;6.75;3.65;;;8.10;99.90;;;;;;5013825;28;20034;-83
2022/04/06 02:40:57;;;;;;;4.97;3.42;;;8.10;99.90;;;;;;5013783;28;20124;-83
2022/04/06 02:43:23;;;;;;;5.70;3.30;;;8.20;99.90;;;;;;5013157;28;20444;-83
2022/04/06 02:45:49;;;;;;;7.07;3.78;;;8.10;99.90;;;;;;5014991;28;20032;-83
2022/04/06 02:48:18;;;;;;;4.75;3.53;;;8.10;99.90;;;;;;5013664;28;20026;-83
2022/04/06 02:50:43;;;;;;;5.18;3.70;;;8.10;99.90;;;;;;5014871;28;20101;-84
2022/04/06 02:53:09;;;;;;;4.20;3.38;;;8.10;99.90;;;;;;5013423;28;20081;-83
2022/04/06 02:55:35;;;;;;;9.73;3.70;;;8.10;99.90;;;;;;5015127;28;20033;-84
2022/04/06 02:58:00;;;;;;;5.30;3.50;;;8.10;99.90;;;;;;5013567;28;20374;-84
2022/04/06 03:00:26;;;;;;;6.57;3.67;;;8.10;99.90;;;;;;5013569;28;20029;-84
2022/04/06 03:02:52;;;;;;;5.28;3.67;;;8.10;99.90;;;;;;5013424;28;20031;-84
2022/04/06 03:05:17;;;;;;;5.78;3.80;;;8.10;99.90;;;;;;5014662;28;20490;-84
2022/04/06 03:07:45;;;;;;;5.30;3.67;;;8.10;99.90;;;;;;5013342;28;20017;-83
2022/04/06 03:10:11;;;;;;;7.10;3.97;;;8.10;99.90;;;;;;5014518;28;20022;-83
2022/04/06 03:12:37;;;;;;;7.05;3.83;;;8.10;99.90;;;;;;5013284;28;20033;-84
2022/04/06 03:15:06;;;;;;;3.92;3.10;;;8.10;99.90;;;;;;5014518;28;20146;-83
2022/04/06 03:17:32;;;;;;;4.00;3.47;;;8.10;99.90;;;;;;5013158;28;20022;-83
2022/04/06 03:19:57;;;;;;;5.10;3.55;;;8.10;99.90;;;;;;5013096;28;20176;-83
2022/04/06 03:22:23;;;;;;;4.50;3.60;;;8.10;99.90;;;;;;5014349;28;20032;-83
2022/04/06 03:24:48;;;;;;;4.40;3.50;;;8.20;99.90;;;;;;5014246;28;20432;-83
2022/04/06 03:27:14;;;;;;;5.13;3.55;;;8.20;99.90;;;;;;5014298;28;20076;-83
2022/04/06 03:29:40;;;;;;;7.45;3.50;;;8.10;99.90;;;;;;5014230;28;20108;-83
2022/04/06 03:32:09;;;;;;;4.63;3.72;;;8.10;99.90;;;;;;5014162;28;20056;-83
2022/04/06 03:34:36;;;;;;;6.72;3.22;;;8.10;99.90;;;;;;5014113;28;20105;-83
2022/04/06 03:37:01;;;;;;;4.82;3.60;;;8.10;99.90;;;;;;5014054;28;20450;-83
2022/04/06 03:39:30;;;;;;;5.45;3.60;;;8.20;99.90;;;;;;5013995;28;20109;-84
2022/04/06 03:41:55;;;;;;;5.05;3.38;;;8.10;99.90;;;;;;5013956;28;20029;-83
2022/04/06 03:44:21;;;;;;;6.88;3.60;;;8.10;99.90;;;;;;5012544;28;20026;-83
2022/04/06 03:46:47;;;;;;;5.28;3.13;;;8.10;99.90;;;;;;5013899;28;20025;-83
2022/04/06 03:49:14;;;;;;;4.97;3.20;;;8.10;99.90;;;;;;5011822;28;20436;-84
2022/04/06 03:51:39;;;;;;;6.10;4.00;;;8.10;99.90;;;;;;5012427;28;20105;-83
2022/04/06 03:54:05;;;;;;;7.00;3.92;;;8.10;99.90;;;;;;5012300;28;20131;-83
2022/04/06 03:56:31;;;;;;;4.63;3.22;;;8.10;99.90;;;;;;5012431;28;20078;-83
2022/04/06 03:58:57;;;;;;;5.22;3.00;;;8.10;99.90;;;;;;5013672;28;20037;-83
2022/04/06 04:01:22;;;;;;;4.53;3.17;;;8.10;99.90;;;;;;5012663;28;20410;-83
2022/04/06 04:03:48;;;;;;;4.72;3.25;;;8.10;99.90;;;;;;5013506;28;20374;-83
2022/04/06 04:06:14;;;;;;;4.65;3.47;;;8.10;99.90;;;;;;5013603;28;20026;-83
2022/04/06 04:08:40;;;;;;;4.63;3.38;;;8.10;99.90;;;;;;5012254;28;20040;-83
2022/04/06 04:11:06;;;;;;;5.30;2.92;;;8.10;99.90;;;;;;5012228;28;20048;-83
2022/04/06 04:13:32;;;;;;;5.97;3.35;;;8.10;99.90;;;;;;5012187;28;20030;-83
2022/04/06 04:15:58;;;;;;;5.90;3.75;;;8.20;99.90;;;;;;5013489;28;20072;-83
2022/04/06 04:18:23;;;;;;;4.22;3.22;;;8.10;99.90;;;;;;5013767;28;20025;-84
2022/04/06 04:20:49;;;;;;;7.85;3.38;;;8.10;99.90;;;;;;5013462;28;20029;-84
2022/04/06 04:23:15;;;;;;;6.93;3.08;;;8.10;99.90;;;;;;5012084;28;20036;-84
2022/04/06 04:25:41;;;;;;;4.10;3.08;;;8.10;99.90;;;;;;5013701;28;20388;-84
2022/04/06 04:28:07;;;;;;;3.85;2.80;;;8.10;99.90;;;;;;5013439;28;20026;-83
2022/04/06 04:30:33;;;;;;;5.47;3.50;;;8.10;99.90;;;;;;5012098;28;20105;-84
2022/04/06 04:32:59;;;;;;;4.18;3.28;;;8.10;99.90;;;;;;5012056;28;20061;-83
2022/04/06 04:35:25;;;;;;;4.60;3.45;;;8.10;99.90;;;;;;5012078;28;20053;-83
2022/04/06 04:37:50;;;;;;;5.78;3.53;;;8.10;99.90;;;;;;5011999;28;20425;-83
2022/04/06 04:40:16;;;;;;;4.90;3.40;;;8.10;99.90;;;;;;5013231;28;20470;-83
2022/04/06 04:42:43;;;;;;;6.07;3.13;;;8.10;99.90;;;;;;5011950;28;20103;-83
2022/04/06 04:45:10;;;;;;;5.43;3.20;;;8.10;99.90;;;;;;5011869;28;20370;-83
2022/04/06 04:47:37;;;;;;;4.65;3.20;;;8.10;99.90;;;;;;5012252;28;20037;-83
2022/04/06 04:50:04;;;;;;;4.13;2.97;;;8.10;99.90;;;;;;5011832;28;20108;-83
2022/04/06 04:52:29;;;;;;;4.40;3.20;;;8.10;99.90;;;;;;5011642;28;20068;-84
2022/04/06 04:54:55;;;;;;;5.20;2.92;;;8.10;99.90;;;;;;5011957;28;20117;-83
2022/04/06 04:57:21;;;;;;;4.78;3.20;;;8.10;99.90;;;;;;5011763;28;20034;-83
2022/04/06 04:59:47;;;;;;;4.85;2.83;;;8.10;99.90;;;;;;5014212;28;20053;-84
2022/04/06 05:02:12;;;;;;;3.75;2.80;;;8.10;99.90;;;;;;5015783;28;20064;-84
2022/04/06 05:04:40;;;;;;;4.65;3.08;;;8.10;99.90;;;;;;5015657;28;20088;-83
2022/04/06 05:07:06;;;;;;;5.57;2.97;;;8.10;99.90;;;;;;5015667;28;20018;-83
2022/04/06 05:09:31;;;;;;;4.18;2.97;;;8.10;99.90;;;;;;5015669;28;20022;-83
2022/04/06 05:11:57;;;;;;;3.35;2.72;;;8.10;99.90;;;;;;5015533;28;20028;-83
2022/04/06 05:14:23;;;;;;;3.83;2.90;;;8.10;99.90;;;;;;5015533;28;20117;-83
2022/04/06 05:16:49;;;;;;;4.47;2.80;;;8.10;99.90;;;;;;5016038;28;20448;-83
2022/04/06 05:19:14;;;;;;;5.38;3.00;;;8.10;99.90;;;;;;5015440;28;20030;-83
2022/04/06 05:21:40;;;;;;;4.07;2.83;;;8.20;99.90;;;;;;5015425;28;20389;-83
2022/04/06 05:24:06;;;;;;;4.30;2.92;;;8.20;99.90;;;;;;5015301;28;20117;-83
2022/04/06 05:26:32;;;;;;;3.85;2.75;;;8.20;99.90;;;;;;5016586;28;20022;-83
2022/04/06 05:28:58;;;;;;;4.80;3.20;;;8.10;99.90;;;;;;5016583;28;20362;-84
2022/04/06 05:31:23;;;;;;;3.38;2.67;;;8.10;99.90;;;;;;5015222;28;20017;-83
2022/04/06 05:33:49;;;;;;;3.80;2.60;;;8.10;99.90;;;;;;5016432;28;20029;-83
2022/04/06 05:36:15;;;;;;;3.78;2.65;;;8.10;99.90;;;;;;5015091;28;20059;-83
2022/04/06 05:38:40;;;;;;;4.03;2.70;;;8.10;99.90;;;;;;5016309;28;20470;-83
2022/04/06 05:41:07;;;;;;;4.63;2.72;;;8.10;99.90;;;;;;5015023;28;20080;-83
2022/04/06 05:43:32;;;;;;;3.55;2.40;;;8.10;99.90;;;;;;5014901;28;20084;-83
2022/04/06 05:45:58;;;;;;;2.97;2.25;;;8.20;99.90;;;;;;5016195;28;20080;-83
2022/04/06 05:48:24;;;;;;;3.88;2.63;;;8.10;99.90;;;;;;5016223;28;20600;-84
2022/04/06 05:50:50;;;;;;;3.33;2.10;;;8.10;99.90;;;;;;5014798;28;20072;-83
2022/04/06 05:53:15;;;;;;;4.07;2.63;;;8.20;99.90;;;;;;5014703;28;20041;-83
2022/04/06 05:55:42;;;;;;;3.13;2.20;;;8.20;99.90;;;;;;5016031;28;20022;-83
2022/04/06 05:58:08;;;;;;;4.18;2.20;;;8.20;99.90;;;;;;5014723;28;20041;-83
2022/04/06 06:00:34;;;;;;;2.65;2.20;;;8.20;99.90;;;;;;5014705;28;20025;-85
2022/04/06 06:02:59;;;;;;;4.10;2.35;;;8.20;99.90;;;;;;5014494;28;20022;-85
2022/04/06 06:05:25;;;;;;;3.83;2.33;;;8.20;99.90;;;;;;5014571;28;20026;-85
2022/04/06 06:07:51;;;;;;;3.08;2.38;;;8.20;99.90;;;;;;5014432;28;20157;-85
2022/04/06 06:10:18;;;;;;;4.65;2.38;;;8.20;99.90;;;;;;5014468;28;20030;-85
2022/04/06 06:12:44;;;;;;;3.13;2.10;;;8.20;99.90;;;;;;5013577;28;20021;-85
2022/04/06 06:15:10;;;;;;;3.00;1.95;;;8.20;99.90;;;;;;5014416;28;20420;-85
2022/04/06 06:17:39;;;;;;;4.20;2.15;;;8.20;99.90;;;;;;5015938;28;20101;-85
2022/04/06 06:20:06;;;;;;;2.85;2.08;;;8.20;99.90;;;;;;5014375;28;20026;-85
2022/04/06 06:22:32;;;;;;;3.17;1.75;;;8.20;99.90;;;;;;5014325;28;20026;-85
2022/04/06 06:24:58;;;;;;;3.28;2.25;;;8.20;99.90;;;;;;5014248;28;20036;-85
2022/04/06 06:27:24;;;;;;;5.38;3.10;;;8.20;99.90;;;;;;5014223;28;20105;-85
2022/04/06 06:29:50;;;;;;;3.53;2.20;;;8.30;99.90;;;;;;5015424;28;20022;-85
2022/04/06 06:32:16;;;;;;;2.95;2.40;;;8.30;99.90;;;;;;5015291;28;20029;-87
2022/04/06 06:34:42;;;;;;;3.70;2.08;;;8.20;99.90;;;;;;5014029;28;20118;-86
2022/04/06 06:37:08;;;;;;;5.78;2.30;;;8.20;99.90;;;;;;5014061;28;20443;-85
2022/04/06 06:39:34;;;;;;;3.53;2.30;;;8.20;99.90;;;;;;5014006;28;20021;-85
2022/04/06 06:41:59;;;;;;;5.07;2.58;;;8.30;99.90;;;;;;5014725;28;20033;-87
2022/04/06 06:44:25;;;;;;;3.83;2.15;;;8.30;99.90;;;;;;5013823;28;20032;-87
2022/04/06 06:46:51;;;;;;;3.33;2.35;;;8.30;99.90;;;;;;5013891;28;20504;-86
2022/04/06 06:49:16;;;;;;;6.43;2.28;;;8.30;99.90;;;;;;5013858;28;20021;-85
2022/04/06 06:51:42;;;;;;;4.15;2.20;;;8.20;99.90;;;;;;5014461;28;20057;-85
2022/04/06 06:54:08;;;;;;;3.05;2.30;;;8.30;99.90;;;;;;5013501;28;20058;-86
2022/04/06 06:56:34;;;;;;;6.00;2.33;;;8.30;99.90;;;;;;5013661;28;20030;-86
2022/04/06 06:59:00;;;;;;;4.68;2.20;;;8.30;99.90;;;;;;5014832;28;20058;-86
2022/04/06 07:01:25;;;;;;;10.70;1.95;;;8.30;99.90;;;;;;5014403;28;20029;-86
2022/04/06 07:03:51;;;;;;;3.58;2.25;;;8.30;99.90;;;;;;5014720;28;20184;-86
2022/04/06 07:06:17;;;;;;;3.22;2.20;;;8.30;99.90;;;;;;5015038;28;20381;-86
2022/04/06 07:08:45;;;;;;;6.32;2.25;;;8.30;99.90;;;;;;5013507;28;20469;-86
2022/04/06 07:11:11;;;;;;;3.53;1.95;;;8.30;99.90;;;;;;5014857;28;20021;-87
2022/04/06 07:13:37;;;;;;;3.38;2.00;;;8.30;99.90;;;;;;5013307;28;20104;-86
2022/04/06 07:16:05;;;;;;;2.72;2.05;;;8.40;99.90;;;;;;5013292;28;20473;-87
2022/04/06 07:18:31;;;;;;;3.75;2.30;;;8.30;99.90;;;;;;5013259;28;20026;-86
2022/04/06 07:20:58;;;;;;;2.83;1.92;;;8.30;99.90;;;;;;5013262;28;20436;-86
2022/04/06 07:23:23;;;;;;;3.80;2.33;;;8.30;99.90;;;;;;5012993;28;20497;-86
2022/04/06 07:25:49;;;;;;;2.50;2.10;;;8.30;99.90;;;;;;5014435;28;20093;-86
2022/04/06 07:28:15;;;;;;;3.25;2.00;;;8.30;99.90;;;;;;5014343;28;20494;-85
2022/04/06 07:30:40;;;;;;;3.05;1.73;;;8.40;99.90;;;;;;5014325;28;20053;-85
2022/04/06 07:33:09;;;;;;;2.13;1.80;;;8.40;99.90;;;;;;5014271;28;20022;-85
2022/04/06 07:35:35;;;;;;;3.13;2.30;;;8.40;99.90;;;;;;5012832;28;20033;-86
2022/04/06 07:38:01;;;;;;;4.20;2.10;;;8.40;99.90;;;;;;5012955;28;20018;-86
2022/04/06 07:40:27;;;;;;;3.00;2.05;;;8.40;99.90;;;;;;5012894;28;20113;-87
2022/04/06 07:42:55;;;;;;;2.33;1.70;;;8.40;99.90;;;;;;5013914;28;20022;-86
2022/04/06 07:45:21;;;;;;;2.83;1.80;;;8.40;99.90;;;;;;5012715;28;20068;-86
2022/04/06 07:47:49;;;;;;;2.72;2.03;;;8.50;99.90;;;;;;5012794;28;20109;-86
2022/04/06 07:50:16;;;;;;;2.38;1.67;;;8.50;99.90;;;;;;5013940;28;20022;-86
2022/04/06 07:52:43;;;;;;;3.17;1.73;;;8.50;99.90;;;;;;5013824;28;20120;-85
2022/04/06 07:55:12;;;;;;;2.85;1.88;;;8.50;99.90;;;;;;5013967;28;20076;-85
2022/04/06 07:57:39;;;;;;;2.28;1.45;;;8.50;99.90;;;;;;5012601;28;20030;-86
2022/04/06 08:00:10;;;;;;;2.65;1.80;;;8.50;99.90;;;;;;5012568;28;20026;-86
2022/04/06 08:02:36;;;;;;;2.15;1.58;;;8.60;99.90;;;;;;5014114;28;20026;-86
2022/04/06 08:05:03;;;;;;;1.90;1.55;;;8.50;99.90;;;;;;5012378;28;20037;-86
2022/04/06 08:07:31;;;;;;;2.10;1.63;;;8.50;99.90;;;;;;5012477;28;20026;-86
2022/04/06 08:09:57;;;;;;;2.35;1.50;;;8.60;99.90;;;;;;5012424;28;20018;-86
2022/04/06 08:12:22;;;;;;;2.83;1.40;;;8.60;99.90;;;;;;5013725;28;20037;-86
2022/04/06 08:14:50;;;;;;;1.98;1.40;;;8.60;99.90;;;;;;5012309;28;20026;-86
2022/04/06 08:17:16;;;;;;;1.80;1.33;;;8.60;99.90;;;;;;5012249;28;20025;-87
2022/04/06 08:19:41;;;;;;;2.28;1.40;;;8.70;99.90;;;;;;5012330;28;20048;-87
2022/04/06 08:22:07;;;;;;;1.88;1.30;;;8.70;99.90;;;;;;5012074;28;20037;-87
2022/04/06 08:24:33;;;;;;;1.60;1.27;;;8.70;99.90;;;;;;5012136;28;20026;-86
2022/04/06 08:26:59;;;;;;;2.35;1.20;;;8.70;99.90;;;;;;5013441;28;20508;-86
2022/04/06 08:29:25;;;;;;;2.17;1.55;;;8.80;99.90;;;;;;5012155;28;20112;-87
2022/04/06 08:31:50;;;;;;;1.48;1.17;;;8.80;99.90;;;;;;5012190;28;20037;-86
2022/04/06 08:34:16;;;;;;;1.63;1.17;;;8.80;99.90;;;;;;5011610;28;20030;-87
2022/04/06 08:36:43;;;;;;;1.65;1.20;;;8.90;99.90;;;;;;5012129;28;20026;-87
2022/04/06 08:39:09;;;;;;;2.17;1.40;;;9.00;99.90;;;;;;5012175;28;20044;-86
2022/04/06 08:41:35;;;;;;;1.60;1.17;;;9.00;99.90;;;;;;5013565;28;20029;-87
2022/04/06 08:44:01;;;;;;;1.83;1.30;;;8.90;99.90;;;;;;5012252;28;20052;-87
2022/04/06 08:46:34;;;;;;;3.03;1.33;;;9.00;99.90;;;;;;5012512;28;20022;-86
2022/04/06 08:49:01;;;;;;;1.50;1.15;;;9.00;99.90;;;;;;5013543;28;20018;-86
2022/04/06 08:51:28;;;;;;;1.40;0.95;;;9.10;99.90;;;;;;5013515;28;20030;-88
2022/04/06 08:53:54;;;;;;;1.65;1.20;;;9.10;99.90;;;;;;5012032;28;20050;-87
2022/04/06 08:56:21;;;;;;;1.38;0.93;;;9.20;99.90;;;;;;5012382;28;20504;-86
2022/04/06 08:58:47;;;;;;;1.80;1.05;;;9.20;99.90;;;;;;5013576;28;20033;-87
2022/04/06 09:01:13;;;;;;;3.33;1.00;;;9.50;99.90;;;;;;5013376;28;20026;-89
2022/04/06 09:03:39;;;;;;;1.85;0.90;;;9.60;99.90;;;;;;5012040;28;20038;-86
2022/04/06 09:06:05;;;;;;;1.92;0.80;;;9.50;99.90;;;;;;5013348;28;20029;-87
2022/04/06 09:08:42;;;;;;;1.98;1.08;;;9.60;99.90;;;;;;5012026;28;20108;-87
2022/04/06 09:11:11;;;;;;;1.85;0.90;;;9.60;99.90;;;;;;5013289;28;20030;-87
2022/04/06 09:13:42;;;;;;;1.00;0.80;;;9.60;99.90;;;;;;5013408;28;20032;-87
2022/04/06 09:16:16;;;;;;;0.80;0.80;;;9.60;99.90;;;;;;5012423;28;20367;-89
2022/04/06 09:18:48;;;;;;;1.10;0.80;;;9.50;99.90;;;;;;5012512;28;20037;-90
2022/04/06 09:21:20;;;;;;;1.42;0.80;;;9.60;99.90;;;;;;5012505;28;20441;-91
2022/04/06 09:23:50;;;;;;;2.75;0.98;;;9.70;99.90;;;;;;5012179;28;20061;-90
2022/04/06 09:26:19;;;;;;;1.85;0.80;;;9.60;99.90;;;;;;5012053;28;20117;-90
2022/04/06 09:28:47;;;;;;;1.30;0.73;;;9.60;99.90;;;;;;5012443;28;20057;-86
2022/04/06 09:31:17;;;;;;;1.80;0.77;;;9.70;99.90;;;;;;5011986;28;20076;-91
2022/04/06 09:33:59;;;;;;;0.82;0.60;;;9.70;99.90;;;;;;5011881;28;20539;-90
2022/04/06 09:36:27;;;;;;;1.83;0.70;;;9.70;99.90;;;;;;5013623;28;20022;-90
2022/04/06 09:38:53;;;;;;;1.13;0.63;;;9.60;99.90;;;;;;5011892;28;20389;-90
2022/04/06 09:41:19;;;;;;;1.05;0.70;;;9.70;99.90;;;;;;5011835;28;20037;-89
2022/04/06 09:43:50;;;;;;;1.13;0.70;;;9.60;99.90;;;;;;5013641;28;20030;-91
2022/04/06 09:49:06;;;;;;;0.90;0.70;;;9.60;99.90;;;;;;5017226;28;20397;-90
2022/04/06 09:51:32;;;;;;;0.82;0.65;;;9.60;99.90;;;;;;5015162;28;20022;-90
2022/04/06 09:54:00;;;;;;;0.85;0.60;;;9.60;99.90;;;;;;5015054;28;20131;-89
2022/04/06 09:56:26;;;;;;;0.70;0.60;;;9.50;99.90;;;;;;5015210;28;20029;-90
2022/04/06 09:58:56;;;;;;;1.73;0.65;;;9.50;99.90;;;;;;5015104;28;20541;-87
2022/04/06 10:01:22;;;;;;;1.70;0.60;;;9.50;99.90;;;;;;5014909;28;20079;-90
2022/04/06 10:03:57;;;;;;;1.88;0.90;;;9.60;99.90;;;;;;5014895;28;20127;-90
2022/04/06 10:06:23;;;;;;;0.85;0.50;;;9.60;99.90;;;;;;5015217;28;20029;-91
2022/04/06 10:08:50;;;;;;;1.85;0.68;;;9.70;99.90;;;;;;5014922;28;20037;-89
2022/04/06 10:11:18;;;;;;;0.73;0.52;;;9.80;99.90;;;;;;5014892;28;20084;-90
2022/04/06 10:13:44;;;;;;;1.02;0.68;;;9.80;99.90;;;;;;5014859;28;20084;-89
2022/04/06 10:16:12;;;;;;;1.08;0.70;;;10.00;99.90;;;;;;5014751;28;20032;-90
2022/04/06 10:18:39;;;;;;;1.02;0.68;;;10.00;99.90;;;;;;5014680;28;20400;-90
2022/04/06 10:21:23;;;;;;;0.82;0.60;;;10.00;99.90;;;;;;5014706;28;20044;-90
2022/04/06 10:24:14;;;;;;;0.85;0.57;;;10.00;99.90;;;;;;5014465;28;20030;-89
2022/04/06 10:27:21;;;;;;;0.70;0.50;;;9.90;99.90;;;;;;5014753;28;20124;-90
2022/04/06 10:30:23;;;;;;;0.93;0.68;;;9.90;99.90;;;;;;5015799;28;20022;-89
2022/04/06 10:32:53;;;;;;;1.58;0.63;;;9.90;99.90;;;;;;4964214;28;20103;-90
2022/04/06 10:35:36;;;;;;;0.80;0.60;;;10.00;99.90;;;;;;5015523;28;20205;-89
2022/04/06 10:38:04;;;;;;;1.73;0.57;;;10.00;99.90;;;;;;5015592;28;20029;-90
2022/04/06 10:40:45;;;;;;;0.65;0.50;;;10.00;99.90;;;;;;5014325;28;20366;-88
2022/04/06 10:43:40;;;;;;;2.58;0.60;;;10.00;99.90;;;;;;5014084;28;20481;-92
2022/04/06 10:46:14;;;;;;;1.88;0.50;;;11.00;99.90;;;;;;5015474;28;20025;-89
2022/04/06 10:49:06;;;;;;;1.58;0.50;;;11.50;99.90;;;;;;5015694;28;20026;-88
2022/04/06 10:51:34;;;;;;;0.20;0.20;;;11.50;99.90;;;;;;5014046;28;20489;-91
2022/04/06 10:54:20;;;;;;;1.40;0.55;;;11.50;99.90;;;;;;5015306;28;20069;-88
2022/04/06 10:56:54;;;;;;;1.58;0.63;;;11.40;99.90;;;;;;4997782;28;20572;-91
2022/04/06 10:59:20;;;;;;;;;;;11.40;99.90;;;;;;5014212;28;20485;-89
2022/04/06 11:01:48;;;;;;;0.80;0.35;;;11.40;99.90;;;;;;5013983;28;20356;-90
2022/04/06 11:04:23;;;;;;;1.45;0.30;;;11.40;99.90;;;;;;5013901;28;20062;-88
2022/04/06 11:06:56;;;;;;;1.00;0.47;;;11.40;99.90;;;;;;5013740;28;20033;-88
2022/04/06 11:12:21;;;;;;;0.85;0.30;;;11.40;99.90;;;;;;5015147;28;20064;-90
2022/04/06 11:15:07;;;;;;;1.48;0.52;;;11.50;99.90;;;;;;5013749;28;20037;-88
2022/04/06 11:19:59;;;;;;;1.02;0.50;;;11.50;99.90;;;;;;5015225;28;20037;-91
2022/04/06 11:22:25;;;;;;;2.25;0.50;;;11.50;99.90;;;;;;5013646;28;20434;-91
2022/04/06 11:24:51;;;;;;;0.47;0.40;;;11.40;99.90;;;;;;5013714;28;20026;-90
2022/04/06 11:27:27;;;;;;;1.13;0.50;;;11.40;99.90;;;;;;5014801;28;20119;-90
2022/04/06 11:30:09;;;;;;;3.40;0.60;;;11.30;99.90;;;;;;5013579;28;20109;-90
2022/04/06 11:32:38;;;;;;;1.45;0.50;;;11.30;99.90;;;;;;5014597;28;20025;-91
2022/04/06 11:35:12;;;;;;;0.90;0.40;;;11.30;99.90;;;;;;5013364;28;20061;-90
2022/04/06 11:37:46;;;;;;;0.67;0.50;;;11.30;99.90;;;;;;5014687;28;20033;-91
2022/04/06 11:40:12;;;;;;;;;;;11.30;99.90;;;;;;5014023;28;20073;-90
2022/04/06 11:42:39;;;;;;;0.85;0.50;;;11.30;99.90;;;;;;5014681;28;19996;-88
2022/04/06 11:45:05;;;;;;;2.55;0.40;;;11.40;99.90;;;;;;5013263;28;20117;-90
2022/04/06 11:47:38;;;;;;;1.50;0.40;;;11.40;99.90;;;;;;5013505;28;20033;-91
2022/04/06 11:50:10;;;;;;;2.20;0.40;;;11.50;99.90;;;;;;5013568;28;20112;-90
2022/04/06 11:52:40;;;;;;;0.57;0.40;;;11.40;99.90;;;;;;5013180;28;20077;-91
2022/04/06 11:55:07;;;;;;;0.63;0.30;;;11.40;99.90;;;;;;5013238;28;20030;-90
2022/04/06 11:57:42;;;;;;;0.90;0.35;;;11.40;99.90;;;;;;5013082;28;20040;-91
2022/04/06 12:00:10;;;;;;;0.55;0.40;;;11.40;99.90;;;;;;5013059;28;20022;-89
2022/04/06 12:02:55;;;;;;;0.63;0.43;;;11.50;99.90;;;;;;5014147;28;20037;-90
2022/04/06 12:05:22;;;;;;;1.15;0.40;;;11.40;99.90;;;;;;5012814;28;20037;-90
2022/04/06 12:07:48;;;;;;;0.70;0.40;;;11.40;99.90;;;;;;5012933;28;20370;-90
2022/04/06 12:10:15;;;;;;;0.73;0.40;;;11.30;99.90;;;;;;5012048;28;20029;-89
2022/04/06 12:12:41;;;;;;;0.55;0.45;;;11.30;99.90;;;;;;5012867;28;20030;-91
2022/04/06 12:15:09;;;;;;;0.25;0.25;;;11.40;99.90;;;;;;5012875;28;20342;-90
2022/04/06 12:17:37;;;;;;;0.40;0.40;;;11.40;99.90;;;;;;5012476;28;20026;-89
2022/04/06 12:20:28;;;;;;;0.40;0.20;;;11.50;99.90;;;;;;5013983;28;20024;-91
2022/04/06 12:23:09;;;;;;;0.77;0.50;;;11.60;99.90;;;;;;5013892;28;20022;-90
2022/04/06 12:25:36;;;;;;;0.52;0.40;;;11.70;99.90;;;;;;5012630;28;20389;-90
2022/04/06 12:28:22;;;;;;;0.50;0.30;;;11.60;99.90;;;;;;5012646;28;20026;-91
2022/04/06 12:31:00;;;;;;;1.08;0.47;;;11.80;99.90;;;;;;5012664;28;20095;-88
2022/04/06 12:33:38;;;;;;;0.63;0.40;;;11.90;99.90;;;;;;5012708;28;20397;-90
2022/04/06 12:36:30;;;;;;;0.17;0.10;;;12.00;99.90;;;;;;5012444;28;20025;-90
2022/04/06 12:39:13;;;;;;;1.08;0.32;;;12.30;99.90;;;;;;5012564;28;20026;-91
2022/04/06 12:42:07;;;;;;;1.33;0.60;;;12.50;99.90;;;;;;5012440;28;20375;-90
2022/04/06 12:44:37;;;;;;;1.67;0.40;;;;;;;;;;5012346;28;20026;-90
2022/04/06 12:47:16;;;;;;;0.43;0.25;;;12.70;99.90;;;;;;5013616;28;20384;-90
2022/04/06 12:49:42;;;;;;;0.50;0.30;;;13.00;99.90;;;;;;5012161;28;20054;-90
2022/04/06 12:52:22;;;;;;;0.88;0.50;;;13.00;99.90;;;;;;5012020;28;20033;-88
2022/04/06 12:55:00;;;;;;;2.35;0.30;;;12.90;99.90;;;;;;5012273;28;20037;-88
2022/04/06 12:57:25;;;;;;;0.60;0.30;;;13.10;99.90;;;;;;5012148;28;20029;-89
2022/04/06 13:00:22;;;;;;;0.63;0.40;;;13.10;99.90;;;;;;5012155;28;20030;-88
2022/04/06 13:02:52;;;;;;;0.95;0.25;;;13.20;99.90;;;;;;5013318;28;20041;-90
2022/04/06 13:05:22;;;;;;;0.50;0.40;;;13.10;99.90;;;;;;5013307;28;20061;-90
2022/04/06 13:07:50;;;;;;;0.55;0.38;;;13.20;99.90;;;;;;5011976;28;20022;-90
2022/04/06 13:10:21;;;;;;;0.70;0.20;;;13.30;99.90;;;;;;5011863;28;20496;-84
2022/04/06 13:12:48;;;;;;;0.47;0.30;;;13.40;99.90;;;;;;5012058;28;20018;-90
2022/04/06 13:15:16;;;;;;;0.80;0.40;;;13.40;99.90;;;;;;5011883;28;20432;-88